Wetterbeobachtung / Meteorologie

Machrihanish

Global Moderator
Mitarbeiter
"Skypunch":

Es5QKJBXAAAMoaN
 

MatthiasKNU

Mitglied
Nur eine kurze Frage von meiner Seite, wollte dafür nicht einen eigenen Thread aufmachen...
Warum wird für die Nordbahn 26R im METAR die Sichtweite angegeben, wenn die Nordbahn doch eh geschlossen ist?
EDDM 210620Z 09006KT 0200 R26R/0325N R08R/0300N FG VV/// 00/M00 Q1020 NOSIG
 
Oben